createdAt,value
2019-03-30T00:02:25.802Z,8.33
2019-03-30T00:04:58.206Z,8.20
2019-03-30T00:07:28.626Z,8.40
2019-03-30T00:09:59.948Z,7.57
2019-03-30T00:12:32.483Z,6.12
2019-03-30T00:15:03.215Z,8.10
2019-03-30T00:17:33.538Z,8.48
2019-03-30T00:20:04.172Z,10.20
2019-03-30T00:22:34.630Z,8.73
2019-03-30T00:25:05.275Z,8.67
2019-03-30T00:27:35.747Z,8.40
2019-03-30T00:30:06.396Z,8.20
2019-03-30T00:32:36.631Z,7.10
2019-03-30T00:35:09.219Z,9.67
2019-03-30T00:37:39.738Z,7.57
2019-03-30T00:40:10.352Z,8.67
2019-03-30T00:42:40.779Z,7.37
2019-03-30T00:45:11.158Z,9.40
2019-03-30T00:47:41.466Z,9.03
2019-03-30T00:50:11.805Z,12.07
2019-03-30T00:52:41.968Z,9.73
2019-03-30T00:55:12.191Z,8.77
2019-03-30T00:57:42.441Z,9.13
2019-03-30T01:00:13.100Z,9.00
2019-03-30T01:02:43.333Z,12.43
2019-03-30T01:05:13.545Z,7.42
2019-03-30T01:07:43.893Z,9.17
2019-03-30T01:10:14.403Z,11.00
2019-03-30T01:12:44.591Z,9.47
2019-03-30T01:15:14.885Z,10.60
2019-03-30T01:17:45.098Z,8.40
2019-03-30T01:20:15.525Z,9.57
2019-03-30T01:22:45.896Z,10.90
2019-03-30T01:25:16.153Z,9.10
2019-03-30T01:27:47.608Z,11.18
2019-03-30T01:30:23.316Z,9.97
2019-03-30T01:32:50.217Z,11.80
2019-03-30T01:35:20.603Z,14.53
2019-03-30T01:37:50.902Z,8.90
2019-03-30T01:40:21.150Z,11.67
2019-03-30T01:42:51.503Z,10.13
2019-03-30T01:45:22.012Z,10.35
2019-03-30T01:47:52.386Z,10.57
2019-03-30T01:50:23.416Z,10.63
2019-03-30T01:52:53.689Z,12.07
2019-03-30T01:55:24.048Z,12.10
2019-03-30T01:57:54.503Z,12.03
2019-03-30T02:00:24.935Z,12.47
2019-03-30T02:02:55.325Z,13.13
2019-03-30T02:05:25.619Z,9.93
2019-03-30T02:07:57.038Z,10.00
2019-03-30T02:10:45.146Z,7.80
2019-03-30T02:13:15.652Z,9.33
2019-03-30T02:15:46.155Z,10.47
2019-03-30T02:18:17.387Z,10.73
2019-03-30T02:20:48.132Z,12.80
2019-03-30T02:23:18.452Z,8.13
2019-03-30T02:25:48.843Z,9.43
2019-03-30T02:28:19.123Z,11.03
2019-03-30T02:30:49.483Z,9.30
2019-03-30T02:33:19.795Z,8.80
2019-03-30T02:35:50.042Z,8.43
2019-03-30T02:38:20.451Z,7.37
2019-03-30T02:40:50.778Z,8.10
2019-03-30T02:43:21.361Z,8.53
2019-03-30T02:45:51.758Z,10.10
2019-03-30T02:48:22.159Z,13.13
2019-03-30T02:50:52.389Z,10.55
2019-03-30T02:53:22.591Z,10.00
2019-03-30T02:55:52.896Z,8.73
2019-03-30T02:58:23.442Z,9.77
2019-03-30T03:00:53.952Z,8.63
2019-03-30T03:03:24.233Z,9.57
2019-03-30T03:05:55.392Z,7.90
2019-03-30T03:08:25.687Z,8.27
2019-03-30T03:10:56.209Z,8.13
2019-03-30T03:13:26.553Z,7.63
2019-03-30T03:15:56.963Z,8.43
2019-03-30T03:18:27.524Z,9.63
2019-03-30T03:21:07.466Z,9.13
2019-03-30T03:23:31.472Z,10.88
2019-03-30T03:26:01.689Z,9.97
2019-03-30T03:28:31.965Z,12.90
2019-03-30T03:31:02.355Z,10.00
2019-03-30T03:33:32.732Z,9.77
2019-03-30T03:36:03.814Z,10.07
2019-03-30T03:38:34.131Z,8.70
2019-03-30T03:41:04.520Z,9.30
2019-03-30T03:43:34.888Z,12.67
2019-03-30T03:46:05.240Z,9.67
2019-03-30T03:48:35.588Z,10.10
2019-03-30T03:51:24.460Z,10.73
2019-03-30T03:53:38.280Z,10.77
2019-03-30T03:56:10.125Z,9.80
2019-03-30T03:58:41.509Z,9.88
2019-03-30T04:01:11.806Z,12.10
2019-03-30T04:03:42.405Z,11.37
2019-03-30T04:06:13.109Z,13.97
2019-03-30T04:08:44.915Z,10.77
2019-03-30T04:11:15.801Z,10.97
2019-03-30T04:13:48.120Z,10.70
2019-03-30T04:16:18.548Z,11.75
2019-03-30T04:18:49.984Z,12.30
2019-03-30T04:21:21.417Z,13.10
2019-03-30T04:23:54.389Z,11.83
2019-03-30T04:26:25.992Z,10.57
2019-03-30T04:28:56.837Z,11.53
2019-03-30T04:31:27.154Z,13.17
2019-03-30T04:33:57.452Z,13.23
2019-03-30T04:36:27.795Z,11.23
2019-03-30T04:38:58.130Z,12.43
2019-03-30T04:41:28.566Z,12.77
2019-03-30T04:43:59.665Z,15.43
2019-03-30T04:46:30.391Z,11.60
2019-03-30T04:49:00.879Z,12.00
2019-03-30T04:51:31.139Z,11.08
2019-03-30T04:54:01.439Z,11.83
2019-03-30T04:56:32.870Z,14.47
2019-03-30T04:59:04.367Z,11.27
2019-03-30T05:01:34.815Z,14.60
2019-03-30T05:04:05.096Z,12.60
2019-03-30T05:06:35.373Z,12.93
2019-03-30T05:09:06.710Z,11.28
2019-03-30T05:11:37.134Z,14.10
2019-03-30T05:14:08.548Z,12.53
2019-03-30T05:16:38.935Z,12.97
2019-03-30T05:19:09.349Z,12.27
2019-03-30T05:21:39.701Z,13.60
2019-03-30T05:24:10.042Z,14.33
2019-03-30T05:26:40.286Z,12.63
2019-03-30T05:29:10.556Z,13.67
2019-03-30T05:31:40.898Z,13.40
2019-03-30T05:34:11.434Z,14.27
2019-03-30T05:36:42.935Z,13.18
2019-03-30T05:39:13.284Z,12.00
2019-03-30T05:41:43.606Z,12.87
2019-03-30T05:44:14.038Z,12.18
2019-03-30T05:46:44.322Z,13.47
2019-03-30T05:49:14.946Z,13.30
2019-03-30T05:51:45.165Z,14.30
2019-03-30T05:54:15.594Z,13.63
2019-03-30T05:56:45.876Z,11.87
2019-03-30T05:59:16.341Z,12.87
2019-03-30T06:01:47.050Z,11.65
2019-03-30T06:04:17.454Z,10.63
2019-03-30T06:06:48.076Z,13.07
2019-03-30T06:09:18.396Z,13.47
2019-03-30T06:11:48.919Z,15.57
2019-03-30T06:14:19.255Z,11.53
2019-03-30T06:16:49.458Z,12.97
2019-03-30T06:19:19.986Z,16.75
2019-03-30T06:21:50.338Z,13.33
2019-03-30T06:24:20.792Z,13.70
2019-03-30T06:26:51.076Z,14.10
2019-03-30T06:29:21.752Z,12.67
2019-03-30T06:31:51.933Z,14.40
2019-03-30T06:34:22.360Z,12.07
2019-03-30T06:36:52.584Z,14.00
2019-03-30T06:39:22.874Z,11.43
2019-03-30T06:41:53.261Z,12.27
2019-03-30T06:44:23.683Z,13.67
2019-03-30T06:46:53.993Z,12.93
2019-03-30T06:49:24.435Z,11.30
2019-03-30T06:51:54.650Z,11.17
2019-03-30T06:54:26.102Z,12.17
2019-03-30T06:56:56.461Z,13.00
2019-03-30T06:59:27.314Z,10.50
2019-03-30T07:01:57.722Z,12.57
2019-03-30T07:04:28.299Z,14.57
2019-03-30T07:06:59.208Z,12.57
2019-03-30T07:09:31.053Z,10.87
2019-03-30T07:12:01.467Z,14.58
2019-03-30T07:14:33.553Z,15.35
2019-03-30T07:17:05.203Z,12.43
2019-03-30T07:19:38.369Z,11.05
2019-03-30T07:22:09.208Z,12.85
2019-03-30T07:24:39.825Z,10.82
2019-03-30T07:27:10.375Z,12.35
2019-03-30T07:29:40.904Z,13.35
2019-03-30T07:32:11.268Z,12.20
2019-03-30T07:34:41.992Z,12.87
2019-03-30T07:37:13.297Z,11.20
2019-03-30T07:39:44.451Z,15.28
2019-03-30T07:42:15.911Z,14.30
2019-03-30T07:44:46.166Z,12.35
2019-03-30T07:47:16.444Z,11.20
2019-03-30T07:49:46.793Z,11.60
2019-03-30T07:52:17.183Z,12.90
2019-03-30T07:54:47.563Z,12.88
2019-03-30T07:57:19.311Z,11.90
2019-03-30T07:59:49.573Z,11.88
2019-03-30T08:02:20.088Z,11.08
2019-03-30T08:04:50.778Z,11.83
2019-03-30T08:07:21.138Z,12.93
2019-03-30T08:09:51.588Z,11.50
2019-03-30T08:12:22.024Z,13.05
2019-03-30T08:14:53.117Z,12.03
2019-03-30T08:17:23.681Z,14.00
2019-03-30T08:19:55.108Z,11.53
2019-03-30T08:22:25.579Z,10.63
2019-03-30T08:24:55.920Z,14.80
2019-03-30T08:27:26.386Z,12.93
2019-03-30T08:29:56.606Z,9.98
2019-03-30T08:32:28.123Z,13.13
2019-03-30T08:34:58.369Z,12.10
2019-03-30T08:37:37.742Z,11.60
2019-03-30T08:40:08.127Z,11.28
2019-03-30T08:42:38.432Z,12.93
2019-03-30T08:45:08.993Z,11.73
2019-03-30T08:47:39.312Z,13.08
2019-03-30T08:50:10.188Z,12.30
2019-03-30T08:52:40.397Z,13.18
2019-03-30T08:55:11.292Z,11.70
2019-03-30T08:57:41.621Z,12.58
2019-03-30T09:00:12.126Z,13.30
2019-03-30T09:02:42.373Z,14.47
2019-03-30T09:05:13.117Z,13.03
2019-03-30T09:07:43.370Z,11.67
2019-03-30T09:10:13.827Z,12.98
2019-03-30T09:12:45.175Z,12.60
2019-03-30T09:15:15.789Z,12.03
2019-03-30T09:17:46.042Z,11.63
2019-03-30T09:20:17.467Z,11.90
2019-03-30T09:22:48.045Z,10.45
2019-03-30T09:25:18.439Z,8.78
2019-03-30T09:27:48.880Z,13.98
2019-03-30T09:30:19.633Z,12.23
2019-03-30T09:32:50.204Z,9.85
2019-03-30T09:35:20.719Z,10.50
2019-03-30T09:37:50.999Z,10.40
2019-03-30T09:40:21.379Z,14.47
2019-03-30T09:42:51.686Z,8.43
2019-03-30T09:45:21.907Z,12.33
2019-03-30T09:47:52.265Z,8.18
2019-03-30T09:50:22.642Z,10.75
2019-03-30T09:52:52.810Z,10.03
2019-03-30T09:55:23.081Z,7.85
2019-03-30T09:57:53.378Z,8.68
2019-03-30T10:00:24.092Z,8.55
2019-03-30T10:02:54.612Z,8.65
2019-03-30T10:05:25.032Z,8.55
2019-03-30T10:07:55.284Z,10.68
2019-03-30T10:10:25.575Z,8.40
2019-03-30T10:12:55.786Z,8.13
2019-03-30T10:15:26.021Z,8.28
2019-03-30T10:17:56.322Z,7.10
2019-03-30T10:20:29.649Z,7.83
2019-03-30T10:23:00.139Z,8.90
2019-03-30T10:25:31.461Z,10.98
2019-03-30T10:28:02.986Z,11.73
2019-03-30T10:30:34.110Z,7.65
2019-03-30T10:33:04.534Z,10.28
2019-03-30T10:35:36.709Z,8.38
2019-03-30T10:38:07.029Z,10.45
2019-03-30T10:40:37.809Z,11.70
2019-03-30T10:43:13.140Z,11.53
2019-03-30T10:45:43.862Z,12.15
2019-03-30T10:48:14.306Z,13.20
2019-03-30T10:50:44.735Z,12.43
2019-03-30T10:53:14.965Z,13.23
2019-03-30T10:55:45.349Z,12.23
2019-03-30T10:58:15.690Z,14.97
2019-03-30T11:00:46.144Z,15.95
2019-03-30T11:03:17.440Z,12.23
2019-03-30T11:05:50.982Z,12.07
2019-03-30T11:08:23.442Z,14.10
2019-03-30T11:10:53.741Z,15.07
2019-03-30T11:13:24.125Z,15.40
2019-03-30T11:15:55.361Z,15.00
2019-03-30T11:18:27.520Z,16.57
2019-03-30T11:20:57.850Z,14.83
2019-03-30T11:23:28.317Z,14.40
2019-03-30T11:25:58.844Z,13.87
2019-03-30T11:28:29.130Z,17.03
2019-03-30T11:31:00.698Z,17.43
2019-03-30T11:33:31.139Z,15.53
2019-03-30T11:36:01.518Z,19.62
2019-03-30T11:38:31.925Z,15.78
2019-03-30T11:41:02.704Z,16.75
2019-03-30T11:43:33.051Z,15.73
2019-03-30T11:46:03.384Z,17.70
2019-03-30T11:48:37.284Z,15.75
2019-03-30T11:51:06.324Z,14.03
2019-03-30T11:53:36.738Z,13.53
2019-03-30T11:56:07.161Z,12.30
2019-03-30T11:58:38.465Z,13.97
2019-03-30T12:01:09.044Z,11.85
2019-03-30T12:03:39.456Z,11.97
2019-03-30T12:06:09.979Z,12.17
2019-03-30T12:08:40.451Z,12.13
2019-03-30T12:11:10.813Z,10.10
2019-03-30T12:13:42.213Z,13.93
2019-03-30T12:16:12.675Z,12.30
2019-03-30T12:18:44.037Z,10.70
2019-03-30T12:21:14.377Z,11.18
2019-03-30T12:23:44.747Z,12.27
2019-03-30T12:26:15.390Z,11.15
2019-03-30T12:28:45.638Z,10.57
2019-03-30T12:31:17.185Z,14.03
2019-03-30T12:33:47.535Z,10.18
2019-03-30T12:36:18.300Z,11.57
2019-03-30T12:38:50.064Z,10.95
2019-03-30T12:41:20.809Z,14.93
2019-03-30T12:43:54.267Z,13.23
2019-03-30T12:46:24.536Z,11.70
2019-03-30T12:48:54.728Z,10.00
2019-03-30T12:51:25.166Z,10.08
2019-03-30T12:53:55.685Z,12.33
2019-03-30T12:56:26.023Z,11.75
2019-03-30T12:58:56.651Z,11.10
2019-03-30T13:01:26.916Z,11.53
2019-03-30T13:03:57.663Z,12.03
2019-03-30T13:06:27.922Z,14.97
2019-03-30T13:08:58.384Z,12.68
2019-03-30T13:11:28.806Z,10.33
2019-03-30T13:14:02.109Z,7.60
2019-03-30T13:16:32.711Z,12.50
2019-03-30T13:19:03.043Z,9.63
2019-03-30T13:21:33.520Z,10.93
2019-03-30T13:24:03.872Z,9.50
2019-03-30T13:26:37.367Z,9.37
2019-03-30T13:29:08.024Z,9.63
2019-03-30T13:31:38.519Z,12.43
2019-03-30T13:34:08.934Z,9.03
2019-03-30T13:36:40.871Z,11.08
2019-03-30T13:39:11.294Z,8.75
2019-03-30T13:41:41.617Z,10.43
2019-03-30T13:44:12.467Z,7.67
2019-03-30T13:46:42.947Z,11.22
2019-03-30T13:49:14.488Z,11.07
2019-03-30T13:51:45.211Z,9.40
2019-03-30T13:54:15.609Z,14.15
2019-03-30T13:56:49.853Z,12.98
2019-03-30T13:59:20.070Z,11.83
2019-03-30T14:01:50.476Z,10.40
2019-03-30T14:04:20.848Z,8.70
2019-03-30T14:06:51.037Z,7.90
2019-03-30T14:09:22.085Z,8.28
2019-03-30T14:11:53.147Z,10.37
2019-03-30T14:14:23.496Z,6.80
2019-03-30T14:16:53.746Z,8.73
2019-03-30T14:19:24.401Z,9.13
2019-03-30T14:21:54.587Z,8.63
2019-03-30T14:24:24.859Z,8.80
2019-03-30T14:26:57.922Z,9.43
2019-03-30T14:29:28.164Z,12.40
2019-03-30T14:31:58.597Z,9.37
2019-03-30T14:34:29.102Z,7.10
2019-03-30T14:36:59.614Z,8.87
2019-03-30T14:39:29.836Z,8.00
2019-03-30T14:42:00.161Z,7.97
2019-03-30T14:44:31.605Z,7.70
2019-03-30T14:47:04.721Z,9.27
2019-03-30T14:49:35.065Z,10.43
2019-03-30T14:52:05.478Z,11.73
2019-03-30T14:54:52.148Z,11.17
2019-03-30T14:57:13.085Z,10.37
2019-03-30T14:59:43.414Z,10.93
2019-03-30T15:02:13.723Z,10.27
2019-03-30T15:04:43.983Z,9.50
2019-03-30T15:07:14.311Z,12.70
2019-03-30T15:09:44.669Z,9.80
2019-03-30T15:12:16.407Z,11.60
2019-03-30T15:14:47.818Z,10.37
2019-03-30T15:17:18.032Z,9.63
2019-03-30T15:19:48.294Z,8.20
2019-03-30T15:22:18.667Z,10.90
2019-03-30T15:24:49.144Z,12.13
2019-03-30T15:27:19.789Z,9.70
2019-03-30T15:29:50.451Z,10.07
2019-03-30T15:32:20.934Z,8.57
2019-03-30T15:34:53.265Z,10.87
2019-03-30T15:37:26.009Z,11.70
2019-03-30T15:39:56.377Z,8.50
2019-03-30T15:42:27.373Z,8.55
2019-03-30T15:44:57.785Z,9.50
2019-03-30T15:47:28.236Z,9.10
2019-03-30T15:49:58.622Z,9.33
2019-03-30T15:52:29.020Z,15.90
2019-03-30T15:54:59.341Z,11.10
2019-03-30T15:57:29.580Z,10.90
2019-03-30T16:00:00.406Z,12.80
2019-03-30T16:02:31.782Z,12.70
2019-03-30T16:05:02.981Z,13.07
2019-03-30T16:07:33.374Z,12.53
2019-03-30T16:10:03.848Z,10.37
2019-03-30T16:12:34.441Z,15.60
2019-03-30T16:15:05.058Z,13.93
2019-03-30T16:17:35.293Z,19.73
2019-03-30T16:20:06.920Z,11.97
2019-03-30T16:22:38.942Z,11.30
2019-03-30T16:25:09.344Z,9.53
2019-03-30T16:27:39.781Z,12.30
2019-03-30T16:30:10.682Z,10.20
2019-03-30T16:32:41.010Z,10.30
2019-03-30T16:35:11.505Z,11.57
2019-03-30T16:37:41.868Z,11.00
2019-03-30T16:40:12.487Z,11.03
2019-03-30T16:42:42.884Z,11.67
2019-03-30T16:45:13.723Z,12.57
2019-03-30T16:47:44.088Z,12.60
2019-03-30T16:50:14.501Z,12.83
2019-03-30T16:52:46.255Z,11.50
2019-03-30T16:55:16.673Z,11.83
2019-03-30T16:57:47.740Z,14.83
2019-03-30T17:00:33.063Z,14.90
2019-03-30T17:03:04.493Z,10.35
2019-03-30T17:05:35.057Z,12.07
2019-03-30T17:08:05.543Z,12.07
2019-03-30T17:10:35.988Z,10.30
2019-03-30T17:13:06.217Z,11.53
2019-03-30T17:15:36.607Z,14.73
2019-03-30T17:18:06.929Z,12.07
2019-03-30T17:20:37.336Z,12.27
2019-03-30T17:23:07.623Z,14.80
2019-03-30T17:25:38.070Z,12.90
2019-03-30T17:28:09.430Z,12.77
2019-03-30T17:30:39.709Z,12.60
2019-03-30T17:33:10.013Z,11.22
2019-03-30T17:35:40.242Z,16.07
2019-03-30T17:38:10.702Z,13.77
2019-03-30T17:40:40.914Z,14.07
2019-03-30T17:43:12.162Z,13.78
2019-03-30T17:45:42.504Z,13.90
2019-03-30T17:48:12.769Z,13.47
2019-03-30T17:50:42.977Z,12.05
2019-03-30T17:53:13.274Z,11.90
2019-03-30T17:55:43.494Z,11.22
2019-03-30T17:58:13.849Z,14.27
2019-03-30T18:00:44.211Z,12.57
2019-03-30T18:03:14.440Z,14.63
2019-03-30T18:05:44.845Z,12.27
2019-03-30T18:08:15.167Z,10.45
2019-03-30T18:10:45.449Z,10.67
2019-03-30T18:13:15.866Z,18.92
2019-03-30T18:15:46.115Z,12.60
2019-03-30T18:18:16.366Z,14.57
2019-03-30T18:20:46.589Z,12.20
2019-03-30T18:23:16.880Z,15.57
2019-03-30T18:25:47.155Z,14.87
2019-03-30T18:28:27.009Z,14.73
2019-03-30T18:30:51.594Z,15.73
2019-03-30T18:33:22.001Z,13.67
2019-03-30T18:35:53.394Z,12.20
2019-03-30T18:38:23.899Z,14.23
2019-03-30T18:40:54.612Z,14.70
2019-03-30T18:43:24.838Z,14.58
2019-03-30T18:45:55.080Z,14.53
2019-03-30T18:48:25.318Z,13.07
2019-03-30T18:50:55.569Z,15.30
2019-03-30T18:53:26.774Z,13.38
2019-03-30T18:55:57.068Z,14.27
2019-03-30T18:58:41.094Z,14.33
2019-03-30T19:00:59.559Z,17.23
2019-03-30T19:03:29.796Z,13.23
2019-03-30T19:06:00.084Z,17.60
2019-03-30T19:08:30.359Z,14.50
2019-03-30T19:11:01.343Z,19.90
2019-03-30T19:13:36.117Z,16.23
2019-03-30T19:16:08.672Z,12.73
2019-03-30T19:18:38.854Z,13.83
2019-03-30T19:21:09.181Z,19.53
2019-03-30T19:23:39.449Z,21.73
2019-03-30T19:26:17.999Z,18.17
2019-03-30T19:28:56.121Z,18.07
2019-03-30T19:31:20.173Z,20.93
2019-03-30T19:33:50.342Z,20.70
2019-03-30T19:36:21.763Z,17.17
2019-03-30T19:38:52.193Z,15.43
2019-03-30T19:41:22.416Z,24.27
2019-03-30T19:43:52.666Z,18.23
2019-03-30T19:46:26.454Z,15.20
2019-03-30T19:48:54.881Z,18.83
2019-03-30T19:51:25.941Z,17.27
2019-03-30T19:53:59.727Z,18.13
2019-03-30T19:56:28.359Z,20.07
2019-03-30T19:59:10.140Z,23.52
2019-03-30T20:01:30.690Z,24.17
2019-03-30T20:04:02.335Z,23.57
2019-03-30T20:06:32.620Z,23.20
2019-03-30T20:09:05.504Z,22.63
2019-03-30T20:11:37.433Z,21.70
2019-03-30T20:14:07.872Z,25.65
2019-03-30T20:16:42.005Z,21.93
2019-03-30T20:19:12.711Z,21.13
2019-03-30T20:21:42.675Z,22.43
2019-03-30T20:24:13.304Z,23.77
2019-03-30T20:26:43.666Z,24.47
2019-03-30T20:29:25.148Z,21.60
2019-03-30T20:31:47.212Z,21.05
2019-03-30T20:34:17.434Z,26.07
2019-03-30T20:36:47.838Z,25.83
2019-03-30T20:39:18.169Z,23.47
2019-03-30T20:41:48.426Z,24.43
2019-03-30T20:44:18.798Z,26.95
2019-03-30T20:46:49.146Z,20.53
2019-03-30T20:49:19.321Z,22.00
2019-03-30T20:51:49.691Z,28.97
2019-03-30T20:54:20.197Z,24.53
2019-03-30T20:56:50.651Z,27.27
2019-03-30T20:59:21.080Z,22.80
2019-03-30T21:01:52.221Z,23.05
2019-03-30T21:04:22.617Z,28.10
2019-03-30T21:06:53.135Z,26.15
2019-03-30T21:09:23.592Z,24.17
2019-03-30T21:11:54.745Z,24.50
2019-03-30T21:14:25.278Z,27.90
2019-03-30T21:16:55.809Z,35.13
2019-03-30T21:19:26.064Z,30.17
2019-03-30T21:21:56.793Z,30.70
2019-03-30T21:24:27.197Z,27.97
2019-03-30T21:26:57.675Z,32.33
2019-03-30T21:29:28.222Z,23.90
2019-03-30T21:31:58.458Z,25.77
2019-03-30T21:34:28.799Z,26.68
2019-03-30T21:36:59.238Z,27.83
2019-03-30T21:39:29.510Z,27.50
2019-03-30T21:42:00.045Z,28.00
2019-03-30T21:44:30.511Z,24.67
2019-03-30T21:47:00.911Z,23.53
2019-03-30T21:49:31.306Z,25.05
2019-03-30T21:52:01.509Z,27.20
2019-03-30T21:54:31.766Z,29.13
2019-03-30T21:57:03.301Z,22.03
2019-03-30T21:59:33.933Z,25.90
2019-03-30T22:02:04.736Z,25.97
2019-03-30T22:04:35.129Z,27.10
2019-03-30T22:07:05.592Z,27.23
2019-03-30T22:09:36.209Z,31.63
2019-03-30T22:12:06.528Z,22.00
2019-03-30T22:14:36.828Z,27.80
2019-03-30T22:17:07.822Z,24.40
2019-03-30T22:19:39.129Z,21.40
2019-03-30T22:22:09.528Z,22.77
2019-03-30T22:24:39.906Z,25.07
2019-03-30T22:27:10.599Z,23.77
2019-03-30T22:29:41.981Z,25.73
2019-03-30T22:32:12.311Z,21.87
2019-03-30T22:34:42.725Z,22.00
2019-03-30T22:37:13.112Z,27.67
2019-03-30T22:39:44.637Z,27.93
2019-03-30T22:42:15.037Z,21.93
2019-03-30T22:44:45.366Z,29.67
2019-03-30T22:47:15.873Z,23.20
2019-03-30T22:49:47.396Z,23.60
2019-03-30T22:52:20.385Z,24.30
2019-03-30T22:54:50.863Z,24.83
2019-03-30T22:57:21.399Z,25.77
2019-03-30T22:59:51.666Z,24.73
2019-03-30T23:02:21.979Z,24.80
2019-03-30T23:04:52.452Z,26.07
2019-03-30T23:07:23.472Z,24.37
2019-03-30T23:09:56.798Z,23.63
2019-03-30T23:12:27.177Z,24.23
2019-03-30T23:14:59.493Z,22.43
2019-03-30T23:17:35.680Z,24.57
2019-03-30T23:20:08.455Z,25.20
2019-03-30T23:22:38.757Z,25.83
2019-03-30T23:25:09.490Z,26.77
2019-03-30T23:27:40.659Z,21.57
2019-03-30T23:30:11.564Z,23.97
2019-03-30T23:32:42.222Z,21.80
2019-03-30T23:35:13.118Z,22.30
2019-03-30T23:37:47.610Z,25.57
2019-03-30T23:40:24.233Z,27.90
2019-03-30T23:42:58.383Z,28.87
2019-03-30T23:45:31.664Z,29.13
2019-03-30T23:48:07.870Z,24.25
2019-03-30T23:50:42.526Z,21.77
2019-03-30T23:53:15.061Z,30.08
2019-03-30T23:55:45.839Z,25.00
2019-03-30T23:58:17.439Z,25.53
